createdAt,value
2018-05-27T00:02:08.141Z,19.70
2018-05-27T00:04:36.384Z,19.50
2018-05-27T00:07:03.891Z,19.50
2018-05-27T00:09:31.449Z,19.60
2018-05-27T00:11:58.937Z,19.50
2018-05-27T00:14:26.415Z,19.50
2018-05-27T00:16:53.917Z,19.40
2018-05-27T00:19:21.387Z,19.30
2018-05-27T00:21:48.861Z,19.40
2018-05-27T00:24:16.357Z,19.30
2018-05-27T00:26:44.626Z,19.10
2018-05-27T00:29:12.861Z,19.20
2018-05-27T00:31:40.368Z,19.20
2018-05-27T00:34:08.609Z,19.10
2018-05-27T00:36:36.112Z,19.00
2018-05-27T00:39:03.618Z,19.10
2018-05-27T00:41:31.137Z,19.00
2018-05-27T00:43:58.636Z,19.00
2018-05-27T00:46:26.109Z,19.00
2018-05-27T00:48:53.709Z,18.90
2018-05-27T00:51:21.185Z,18.90
2018-05-27T00:53:59.613Z,18.90
2018-05-27T00:56:27.088Z,18.80
2018-05-27T00:58:54.593Z,18.70
2018-05-27T01:01:22.072Z,18.70
2018-05-27T01:03:49.595Z,18.70
2018-05-27T01:06:17.107Z,18.70
2018-05-27T01:08:44.583Z,18.60
2018-05-27T01:11:12.844Z,18.50
2018-05-27T01:13:40.323Z,18.50
2018-05-27T01:16:08.584Z,18.50
2018-05-27T01:18:36.833Z,18.50
2018-05-27T01:21:04.344Z,18.50
2018-05-27T01:23:31.818Z,18.60
2018-05-27T01:25:59.328Z,18.70
2018-05-27T01:28:27.570Z,18.70
2018-05-27T01:30:55.082Z,18.70
2018-05-27T01:33:22.580Z,18.70
2018-05-27T01:35:50.193Z,18.80
2018-05-27T01:38:18.433Z,18.70
2018-05-27T01:40:45.934Z,18.70
2018-05-27T01:43:13.449Z,18.70
2018-05-27T01:45:40.892Z,18.60
2018-05-27T01:48:08.386Z,18.60
2018-05-27T01:50:36.653Z,18.60
2018-05-27T01:53:04.963Z,18.60
2018-05-27T01:55:32.455Z,18.60
2018-05-27T01:57:59.966Z,18.50
2018-05-27T02:00:27.477Z,18.30
2018-05-27T02:02:54.950Z,18.30
2018-05-27T02:05:22.445Z,18.30
2018-05-27T02:07:49.949Z,18.20
2018-05-27T02:10:17.733Z,18.30
2018-05-27T02:12:46.008Z,18.30
2018-05-27T02:15:14.249Z,18.30
2018-05-27T02:17:41.754Z,18.30
2018-05-27T02:20:09.329Z,18.40
2018-05-27T02:22:36.821Z,18.40
2018-05-27T02:25:04.304Z,18.40
2018-05-27T02:27:31.800Z,18.30
2018-05-27T02:29:59.321Z,18.40
2018-05-27T02:32:27.603Z,18.30
2018-05-27T02:34:55.119Z,18.30
2018-05-27T02:37:22.637Z,18.40
2018-05-27T02:39:50.134Z,18.30
2018-05-27T02:42:17.620Z,18.40
2018-05-27T02:44:45.910Z,18.40
2018-05-27T02:47:13.393Z,18.40
2018-05-27T02:49:40.952Z,18.30
2018-05-27T02:52:08.433Z,18.30
2018-05-27T02:54:35.954Z,18.20
2018-05-27T02:57:03.432Z,18.10
2018-05-27T02:59:30.921Z,18.10
2018-05-27T03:01:58.394Z,18.10
2018-05-27T03:04:26.654Z,17.90
2018-05-27T03:06:54.909Z,17.80
2018-05-27T03:09:22.435Z,17.80
2018-05-27T03:11:49.905Z,17.90
2018-05-27T03:14:17.392Z,17.90
2018-05-27T03:16:44.882Z,17.80
2018-05-27T03:19:13.129Z,18.00
2018-05-27T03:21:40.622Z,18.00
2018-05-27T03:24:08.095Z,18.10
2018-05-27T03:26:35.624Z,18.00
2018-05-27T03:29:03.109Z,18.00
2018-05-27T03:31:30.617Z,18.00
2018-05-27T03:33:58.097Z,18.00
2018-05-27T03:36:26.362Z,18.10
2018-05-27T03:38:54.617Z,18.10
2018-05-27T03:41:22.103Z,18.10
2018-05-27T03:43:50.358Z,18.00
2018-05-27T03:46:17.828Z,18.00
2018-05-27T03:48:46.128Z,18.10
2018-05-27T03:51:13.625Z,18.10
2018-05-27T03:53:41.117Z,18.10
2018-05-27T03:56:09.386Z,18.20
2018-05-27T03:58:37.773Z,18.30
2018-05-27T04:01:05.260Z,18.30
2018-05-27T04:03:32.732Z,18.30
2018-05-27T04:06:12.293Z,18.40
2018-05-27T04:08:39.760Z,18.50
2018-05-27T04:11:07.274Z,18.50
2018-05-27T04:13:34.748Z,18.60
2018-05-27T04:16:02.263Z,18.60
2018-05-27T04:18:29.741Z,18.70
2018-05-27T04:20:57.244Z,18.60
2018-05-27T04:23:25.489Z,18.60
2018-05-27T04:25:52.993Z,18.60
2018-05-27T04:28:21.252Z,18.60
2018-05-27T04:30:48.761Z,18.60
2018-05-27T04:33:16.262Z,18.60
2018-05-27T04:35:45.433Z,18.60
2018-05-27T04:38:12.941Z,18.60
2018-05-27T04:40:40.414Z,18.60
2018-05-27T04:43:07.966Z,18.60
2018-05-27T04:45:35.445Z,18.70
2018-05-27T04:48:03.173Z,18.70
2018-05-27T04:50:30.673Z,18.70
2018-05-27T04:52:58.194Z,18.90
2018-05-27T04:55:25.673Z,19.70
2018-05-27T04:57:53.181Z,19.70
2018-05-27T05:00:21.421Z,19.00
2018-05-27T05:02:48.888Z,19.00
2018-05-27T05:05:17.180Z,19.00
2018-05-27T05:07:44.656Z,19.00
2018-05-27T05:10:12.187Z,18.80
2018-05-27T05:12:39.661Z,18.90
2018-05-27T05:15:07.961Z,18.90
2018-05-27T05:17:35.520Z,18.90
2018-05-27T05:20:03.015Z,18.80
2018-05-27T05:22:30.490Z,19.00
2018-05-27T05:24:57.974Z,19.10
2018-05-27T05:27:26.238Z,19.20
2018-05-27T05:29:53.753Z,19.20
2018-05-27T05:32:21.264Z,19.50
2018-05-27T05:34:48.740Z,20.60
2018-05-27T05:37:16.235Z,21.00
2018-05-27T05:39:43.721Z,21.20
2018-05-27T05:42:11.994Z,22.30
2018-05-27T05:44:39.481Z,22.20
2018-05-27T05:47:07.011Z,21.40
2018-05-27T05:49:34.497Z,21.40
2018-05-27T05:52:01.989Z,21.20
2018-05-27T05:54:29.477Z,20.60
2018-05-27T05:56:57.011Z,20.60
2018-05-27T05:59:24.501Z,20.20
2018-05-27T06:01:51.979Z,20.30
2018-05-27T06:04:19.460Z,21.20
2018-05-27T06:06:46.953Z,21.50
2018-05-27T06:09:15.214Z,20.60
2018-05-27T06:11:42.743Z,20.50
2018-05-27T06:14:10.237Z,20.50
2018-05-27T06:16:37.719Z,20.70
2018-05-27T06:19:05.243Z,21.40
2018-05-27T06:21:32.797Z,21.10
2018-05-27T06:24:00.276Z,20.80
2018-05-27T06:26:28.529Z,20.40
2018-05-27T06:28:56.013Z,20.40
2018-05-27T06:31:24.270Z,21.10
2018-05-27T06:33:52.516Z,21.40
2018-05-27T06:36:20.015Z,21.40
2018-05-27T06:38:48.268Z,21.40
2018-05-27T06:41:15.784Z,21.30
2018-05-27T06:43:43.336Z,21.40
2018-05-27T06:46:10.835Z,22.00
2018-05-27T06:48:38.311Z,21.70
2018-05-27T06:51:06.549Z,21.70
2018-05-27T06:53:34.061Z,21.70
2018-05-27T06:56:01.633Z,21.60
2018-05-27T06:58:29.126Z,21.40
2018-05-27T07:00:56.615Z,21.60
2018-05-27T07:03:24.901Z,21.90
2018-05-27T07:05:53.163Z,22.60
2018-05-27T07:08:21.413Z,23.50
2018-05-27T07:10:50.413Z,22.90
2018-05-27T07:13:19.802Z,23.20
2018-05-27T07:15:47.283Z,23.20
2018-05-27T07:18:15.545Z,24.20
2018-05-27T07:20:43.050Z,24.10
2018-05-27T07:23:10.518Z,24.60
2018-05-27T07:25:38.030Z,24.60
2018-05-27T07:28:06.336Z,25.00
2018-05-27T07:30:34.561Z,24.10
2018-05-27T07:33:02.033Z,24.10
2018-05-27T07:35:30.301Z,24.50
2018-05-27T07:37:57.772Z,24.50
2018-05-27T07:40:26.065Z,24.60
2018-05-27T07:42:53.533Z,24.50
2018-05-27T07:45:21.009Z,24.00
2018-05-27T07:47:48.554Z,23.80
2018-05-27T07:50:16.053Z,24.20
2018-05-27T07:52:45.065Z,23.30
2018-05-27T07:55:13.317Z,24.10
2018-05-27T07:57:40.831Z,24.10
2018-05-27T08:00:08.382Z,24.00
2018-05-27T08:02:35.869Z,26.10
2018-05-27T08:05:03.353Z,26.00
2018-05-27T08:07:30.891Z,25.20
2018-05-27T08:09:59.169Z,24.80
2018-05-27T08:12:26.638Z,24.80
2018-05-27T08:14:54.161Z,25.10
2018-05-27T08:17:21.657Z,25.30
2018-05-27T08:19:49.953Z,27.10
2018-05-27T08:22:17.538Z,27.10
2018-05-27T08:24:46.055Z,27.60
2018-05-27T08:27:13.609Z,26.20
2018-05-27T08:29:41.096Z,26.10
2018-05-27T08:32:08.572Z,25.90
2018-05-27T08:34:36.053Z,26.50
2018-05-27T08:37:03.541Z,26.00
2018-05-27T08:39:31.159Z,25.60
2018-05-27T08:41:58.663Z,25.40
2018-05-27T08:44:26.133Z,25.20
2018-05-27T08:46:54.441Z,25.30
2018-05-27T08:49:22.003Z,25.30
2018-05-27T08:51:49.506Z,24.90
2018-05-27T08:54:18.492Z,25.00
2018-05-27T08:56:46.016Z,25.00
2018-05-27T08:59:13.493Z,25.80
2018-05-27T09:01:41.021Z,26.90
2018-05-27T09:04:08.521Z,27.00
2018-05-27T09:06:36.003Z,26.50
2018-05-27T09:09:07.144Z,26.90
2018-05-27T09:11:35.405Z,27.60
2018-05-27T09:14:03.313Z,27.60
2018-05-27T09:16:30.810Z,27.30
2018-05-27T09:18:58.324Z,27.80
2018-05-27T09:21:25.821Z,27.90
2018-05-27T09:23:53.293Z,27.30
2018-05-27T09:26:20.785Z,27.10
2018-05-27T09:28:49.021Z,26.60
2018-05-27T09:31:16.511Z,26.60
2018-05-27T09:33:44.774Z,26.40
2018-05-27T09:36:13.080Z,26.30
2018-05-27T09:38:40.593Z,26.20
2018-05-27T09:41:08.093Z,26.90
2018-05-27T09:43:35.577Z,27.60
2018-05-27T09:46:03.073Z,27.80
2018-05-27T09:48:31.362Z,27.20
2018-05-27T09:50:59.690Z,27.90
2018-05-27T09:53:27.185Z,27.90
2018-05-27T09:55:55.432Z,27.00
2018-05-27T09:58:22.990Z,27.00
2018-05-27T10:00:50.457Z,26.50
2018-05-27T10:03:18.754Z,26.40
2018-05-27T10:05:47.010Z,26.40
2018-05-27T10:08:14.505Z,26.40
2018-05-27T10:10:42.041Z,26.20
2018-05-27T10:13:09.588Z,26.30
2018-05-27T10:15:37.195Z,26.30
2018-05-27T10:18:04.697Z,26.30
2018-05-27T10:20:32.207Z,26.00
2018-05-27T10:22:59.719Z,25.80
2018-05-27T10:25:28.037Z,25.60
2018-05-27T10:27:55.548Z,25.50
2018-05-27T10:30:23.825Z,25.50
2018-05-27T10:32:52.145Z,25.50
2018-05-27T10:35:20.369Z,25.80
2018-05-27T10:37:47.869Z,25.70
2018-05-27T10:40:15.432Z,25.60
2018-05-27T10:42:42.933Z,25.90
2018-05-27T10:45:11.181Z,25.70
2018-05-27T10:47:38.701Z,25.60
2018-05-27T10:50:06.214Z,24.80
2018-05-27T10:52:33.744Z,24.20
2018-05-27T10:55:01.226Z,24.00
2018-05-27T10:57:28.725Z,23.40
2018-05-27T10:59:57.014Z,21.70
2018-05-27T11:02:25.237Z,20.90
2018-05-27T11:04:52.752Z,20.80
2018-05-27T11:07:20.241Z,20.60
2018-05-27T11:09:47.750Z,20.50
2018-05-27T11:12:15.273Z,20.60
2018-05-27T11:14:42.734Z,20.80
2018-05-27T11:17:10.210Z,20.90
2018-05-27T11:19:38.536Z,21.10
2018-05-27T11:22:06.029Z,21.10
2018-05-27T11:24:33.531Z,21.10
2018-05-27T11:27:01.017Z,21.00
2018-05-27T11:29:28.524Z,21.10
2018-05-27T11:31:56.025Z,21.10
2018-05-27T11:34:23.524Z,21.20
2018-05-27T11:36:51.075Z,21.30
2018-05-27T11:39:18.682Z,21.30
2018-05-27T11:41:46.211Z,21.20
2018-05-27T11:44:15.214Z,21.40
2018-05-27T11:46:42.740Z,21.40
2018-05-27T11:49:10.985Z,21.50
2018-05-27T11:51:38.562Z,21.50
2018-05-27T11:54:06.015Z,21.50
2018-05-27T11:56:33.509Z,21.50
2018-05-27T11:59:01.013Z,21.10
2018-05-27T12:01:28.504Z,20.90
2018-05-27T12:03:56.774Z,21.20
2018-05-27T12:06:24.295Z,21.20
2018-05-27T12:08:51.799Z,21.50
2018-05-27T12:11:20.085Z,21.70
2018-05-27T12:13:48.371Z,21.70
2018-05-27T12:16:15.989Z,21.70
2018-05-27T12:18:43.516Z,21.70
2018-05-27T12:21:11.001Z,21.30
2018-05-27T12:23:38.487Z,21.10
2018-05-27T12:26:06.753Z,21.10
2018-05-27T12:28:35.041Z,21.10
2018-05-27T12:31:03.410Z,21.30
2018-05-27T12:33:30.917Z,21.30
2018-05-27T12:35:58.457Z,21.40
2018-05-27T12:38:25.959Z,21.40
2018-05-27T12:40:53.477Z,21.40
2018-05-27T12:43:20.960Z,21.50
2018-05-27T12:45:48.551Z,21.30
2018-05-27T12:48:16.851Z,21.40
2018-05-27T12:50:44.337Z,21.30
2018-05-27T12:53:11.829Z,21.50
2018-05-27T12:55:40.065Z,21.70
2018-05-27T12:58:07.585Z,21.60
2018-05-27T13:00:35.063Z,21.50
2018-05-27T13:03:02.669Z,21.30
2018-05-27T13:05:31.661Z,22.00
2018-05-27T13:07:59.133Z,22.00
2018-05-27T13:10:27.409Z,23.30
2018-05-27T13:12:55.649Z,22.90
2018-05-27T13:15:23.145Z,22.90
2018-05-27T13:17:51.390Z,24.10
2018-05-27T13:20:18.907Z,24.00
2018-05-27T13:22:46.394Z,24.60
2018-05-27T13:25:13.880Z,24.60
2018-05-27T13:27:42.137Z,24.80
2018-05-27T13:30:09.615Z,24.80
2018-05-27T13:32:37.888Z,25.50
2018-05-27T13:35:06.141Z,25.10
2018-05-27T13:37:33.657Z,25.00
2018-05-27T13:40:01.133Z,25.50
2018-05-27T13:42:28.605Z,25.50
2018-05-27T13:44:56.889Z,25.00
2018-05-27T13:47:24.344Z,25.00
2018-05-27T13:49:51.850Z,25.80
2018-05-27T13:52:19.348Z,27.50
2018-05-27T13:54:46.866Z,28.90
2018-05-27T13:57:14.350Z,29.10
2018-05-27T13:59:41.827Z,28.20
2018-05-27T14:02:09.324Z,27.40
2018-05-27T14:04:36.801Z,27.80
2018-05-27T14:07:04.287Z,28.80
2018-05-27T14:09:31.765Z,29.20
2018-05-27T14:11:59.265Z,26.80
2018-05-27T14:14:26.741Z,26.10
2018-05-27T14:16:54.232Z,26.50
2018-05-27T14:19:21.725Z,26.30
2018-05-27T14:21:49.260Z,26.90
2018-05-27T14:24:17.543Z,27.00
2018-05-27T14:26:45.790Z,27.20
2018-05-27T14:29:13.988Z,27.20
2018-05-27T14:31:41.487Z,27.70
2018-05-27T14:34:08.957Z,28.10
2018-05-27T14:36:36.446Z,28.10
2018-05-27T14:39:05.641Z,27.60
2018-05-27T14:41:33.240Z,27.60
2018-05-27T14:44:00.721Z,27.20
2018-05-27T14:46:28.210Z,27.40
2018-05-27T14:48:55.694Z,27.30
2018-05-27T14:51:23.172Z,28.00
2018-05-27T14:53:50.653Z,27.40
2018-05-27T14:56:18.145Z,26.70
2018-05-27T14:58:46.397Z,26.00
2018-05-27T15:01:14.669Z,25.80
2018-05-27T15:03:42.156Z,25.80
2018-05-27T15:06:10.393Z,25.70
2018-05-27T15:08:38.650Z,25.50
2018-05-27T15:11:06.140Z,25.50
2018-05-27T15:13:33.613Z,25.10
2018-05-27T15:16:01.861Z,24.80
2018-05-27T15:18:29.399Z,24.80
2018-05-27T15:20:57.605Z,24.10
2018-05-27T15:23:25.885Z,23.70
2018-05-27T15:25:54.128Z,23.40
2018-05-27T15:28:21.613Z,23.30
2018-05-27T15:30:49.875Z,23.20
2018-05-27T15:33:18.145Z,22.90
2018-05-27T15:35:45.617Z,22.90
2018-05-27T15:38:13.942Z,22.60
2018-05-27T15:40:41.445Z,22.60
2018-05-27T15:43:08.925Z,22.50
2018-05-27T15:45:38.737Z,22.20
2018-05-27T15:48:07.070Z,22.20
2018-05-27T15:50:34.560Z,22.20
2018-05-27T15:53:02.817Z,22.20
2018-05-27T15:55:30.313Z,22.10
2018-05-27T15:57:57.887Z,21.90
2018-05-27T16:00:25.383Z,21.80
2018-05-27T16:02:52.865Z,21.50
2018-05-27T16:05:21.131Z,21.20
2018-05-27T16:07:49.404Z,21.20
2018-05-27T16:10:17.657Z,21.30
2018-05-27T16:12:45.158Z,21.30
2018-05-27T16:15:12.639Z,21.30
2018-05-27T16:17:40.170Z,21.10
2018-05-27T16:20:07.673Z,20.90
2018-05-27T16:22:35.149Z,20.50
2018-05-27T16:25:02.654Z,20.20
2018-05-27T16:27:30.134Z,20.30
2018-05-27T16:29:57.650Z,20.50
2018-05-27T16:32:25.900Z,20.60
2018-05-27T16:34:53.401Z,20.60
2018-05-27T16:37:20.901Z,20.70
2018-05-27T16:39:49.181Z,20.70
2018-05-27T16:42:16.674Z,20.70
2018-05-27T16:44:44.149Z,20.80
2018-05-27T16:47:11.644Z,20.80
2018-05-27T16:49:39.132Z,20.80
2018-05-27T16:52:07.414Z,20.70
2018-05-27T16:54:35.673Z,20.80
2018-05-27T16:57:03.225Z,20.80
2018-05-27T16:59:31.495Z,20.90
2018-05-27T17:01:59.001Z,20.90
2018-05-27T17:04:26.513Z,20.80
2018-05-27T17:06:53.997Z,20.90
2018-05-27T17:09:21.502Z,20.90
2018-05-27T17:11:48.985Z,20.80
2018-05-27T17:14:17.258Z,20.90
2018-05-27T17:16:44.744Z,20.90
2018-05-27T17:19:13.016Z,21.10
2018-05-27T17:21:40.513Z,21.10
2018-05-27T17:24:08.015Z,21.30
2018-05-27T17:26:36.277Z,21.30
2018-05-27T17:29:03.761Z,21.20
2018-05-27T17:31:32.045Z,21.20
2018-05-27T17:33:59.598Z,21.10
2018-05-27T17:36:27.125Z,21.00
2018-05-27T17:38:55.378Z,21.00
2018-05-27T17:41:22.880Z,21.00
2018-05-27T17:43:50.413Z,20.80
2018-05-27T17:46:17.894Z,20.90
2018-05-27T17:48:46.165Z,20.60
2018-05-27T17:51:14.422Z,20.50
2018-05-27T17:53:42.690Z,20.50
2018-05-27T17:56:10.166Z,20.50
2018-05-27T17:58:38.521Z,20.40
2018-05-27T18:01:06.020Z,20.40
2018-05-27T18:03:33.523Z,20.30
2018-05-27T18:06:01.016Z,20.30
2018-05-27T18:08:29.284Z,20.30
2018-05-27T18:10:56.818Z,20.20
2018-05-27T18:13:24.321Z,20.20
2018-05-27T18:15:51.822Z,20.20
2018-05-27T18:18:19.326Z,20.20
2018-05-27T18:20:46.877Z,20.30
2018-05-27T18:23:15.127Z,20.30
2018-05-27T18:25:42.625Z,20.30
2018-05-27T18:28:10.205Z,20.20
2018-05-27T18:30:37.697Z,20.20
2018-05-27T18:33:05.270Z,20.20
2018-05-27T18:35:33.528Z,20.20
2018-05-27T18:38:01.033Z,20.20
2018-05-27T18:40:28.521Z,20.30
2018-05-27T18:42:56.032Z,20.30
2018-05-27T18:45:23.537Z,20.20
2018-05-27T18:47:51.018Z,20.30
2018-05-27T18:50:18.508Z,20.50
2018-05-27T18:52:46.030Z,20.50
2018-05-27T18:55:14.374Z,20.50
2018-05-27T18:57:41.897Z,20.50
2018-05-27T19:00:09.389Z,20.40
2018-05-27T19:02:36.912Z,20.30
2018-05-27T19:05:04.423Z,20.40
2018-05-27T19:07:31.914Z,20.30
2018-05-27T19:09:59.415Z,20.30
2018-05-27T19:12:26.910Z,20.30
2018-05-27T19:14:54.641Z,20.20
2018-05-27T19:17:22.183Z,20.00
2018-05-27T19:19:50.402Z,19.90
2018-05-27T19:22:17.885Z,19.90
2018-05-27T19:24:45.361Z,19.90
2018-05-27T19:27:12.862Z,19.80
2018-05-27T19:29:41.117Z,19.60
2018-05-27T19:32:08.634Z,19.60
2018-05-27T19:34:38.069Z,19.60
2018-05-27T19:37:05.577Z,19.50
2018-05-27T19:39:33.829Z,19.50
2018-05-27T19:42:01.344Z,19.50
2018-05-27T19:44:28.835Z,19.40
2018-05-27T19:46:56.330Z,19.30
2018-05-27T19:49:24.642Z,19.30
2018-05-27T19:51:52.912Z,19.30
2018-05-27T19:54:20.412Z,19.20
2018-05-27T19:56:48.021Z,19.20
2018-05-27T19:59:15.513Z,19.10
2018-05-27T20:01:43.009Z,19.20
2018-05-27T20:04:11.245Z,19.20
2018-05-27T20:06:38.753Z,19.20
2018-05-27T20:09:06.245Z,19.20
2018-05-27T20:11:33.732Z,19.20
2018-05-27T20:14:02.059Z,19.30
2018-05-27T20:16:29.557Z,19.20
2018-05-27T20:18:57.835Z,19.30
2018-05-27T20:21:25.317Z,19.30
2018-05-27T20:23:53.586Z,19.30
2018-05-27T20:26:21.841Z,19.20
2018-05-27T20:28:49.330Z,19.20
2018-05-27T20:31:16.841Z,19.20
2018-05-27T20:33:44.349Z,19.20
2018-05-27T20:36:11.859Z,19.10
2018-05-27T20:38:39.333Z,19.10
2018-05-27T20:41:07.604Z,19.10
2018-05-27T20:43:35.105Z,19.10
2018-05-27T20:46:02.621Z,19.10
2018-05-27T20:48:30.109Z,19.10
2018-05-27T20:50:57.594Z,19.10
2018-05-27T20:53:25.908Z,19.00
2018-05-27T20:55:53.406Z,19.00
2018-05-27T20:58:20.924Z,18.90
2018-05-27T21:00:48.402Z,18.90
2018-05-27T21:03:15.900Z,18.90
2018-05-27T21:05:43.381Z,18.90
2018-05-27T21:08:10.883Z,18.90
2018-05-27T21:10:38.389Z,18.90
2018-05-27T21:13:05.877Z,18.80
2018-05-27T21:15:33.413Z,18.90
2018-05-27T21:18:01.665Z,18.80
2018-05-27T21:20:29.165Z,18.80
2018-05-27T21:22:57.404Z,18.80
2018-05-27T21:25:24.924Z,18.80
2018-05-27T21:27:52.421Z,18.70
2018-05-27T21:30:20.351Z,18.70
2018-05-27T21:32:47.817Z,18.70
2018-05-27T21:35:15.305Z,18.60
2018-05-27T21:37:42.814Z,18.40
2018-05-27T21:40:10.959Z,18.40
2018-05-27T21:42:39.246Z,18.30
2018-05-27T21:45:07.529Z,18.20
2018-05-27T21:47:35.312Z,18.20
2018-05-27T21:50:02.821Z,18.20
2018-05-27T21:52:30.297Z,18.10
2018-05-27T21:54:57.821Z,18.10
2018-05-27T21:57:25.295Z,18.00
2018-05-27T21:59:52.805Z,17.90
2018-05-27T22:02:20.286Z,17.80
2018-05-27T22:04:47.787Z,17.70
2018-05-27T22:07:15.297Z,17.60
2018-05-27T22:09:42.809Z,17.60
2018-05-27T22:12:10.327Z,17.70
2018-05-27T22:14:37.807Z,17.50
2018-05-27T22:17:05.311Z,17.50
2018-05-27T22:19:32.805Z,17.40
2018-05-27T22:22:01.073Z,17.60
2018-05-27T22:24:28.571Z,17.60
2018-05-27T22:26:56.078Z,17.50
2018-05-27T22:29:23.597Z,17.40
2018-05-27T22:31:51.093Z,17.50
2018-05-27T22:34:18.569Z,17.70
2018-05-27T22:36:46.833Z,17.50
2018-05-27T22:39:15.097Z,17.50
2018-05-27T22:41:42.576Z,17.40
2018-05-27T22:44:10.879Z,17.40
2018-05-27T22:46:38.380Z,17.30
2018-05-27T22:49:05.874Z,17.40
2018-05-27T22:51:33.867Z,17.40
2018-05-27T22:54:01.381Z,17.30
2018-05-27T22:56:28.984Z,17.30
2018-05-27T22:58:56.523Z,17.30
2018-05-27T23:01:24.037Z,17.20
2018-05-27T23:03:51.530Z,17.20
2018-05-27T23:06:19.789Z,17.40
2018-05-27T23:08:48.033Z,17.60
2018-05-27T23:11:15.541Z,17.60
2018-05-27T23:13:43.054Z,17.60
2018-05-27T23:16:10.571Z,17.50
2018-05-27T23:18:38.060Z,17.30
2018-05-27T23:21:06.137Z,17.40
2018-05-27T23:23:33.657Z,17.50
2018-05-27T23:26:01.136Z,17.50
2018-05-27T23:28:28.649Z,17.50
2018-05-27T23:30:56.129Z,17.40
2018-05-27T23:33:24.422Z,17.20
2018-05-27T23:35:51.897Z,17.20
2018-05-27T23:38:19.442Z,17.20
2018-05-27T23:40:46.921Z,17.20
2018-05-27T23:43:14.448Z,17.20
2018-05-27T23:45:41.952Z,17.20
2018-05-27T23:48:10.216Z,17.00
2018-05-27T23:50:37.739Z,17.00
2018-05-27T23:53:05.514Z,17.00
2018-05-27T23:55:33.041Z,17.00
2018-05-27T23:58:01.442Z,17.00
